sensor_id;sensor_type;location;lat;lon;timestamp;P1;durP1;ratioP1;P2;durP2;ratioP2
51921;SDS011;37948;53.260;6.394;2022-08-14T00:00:39;4.82;;;3.17;;
51921;SDS011;37948;53.260;6.394;2022-08-14T00:03:05;7.50;;;4.18;;
51921;SDS011;37948;53.260;6.394;2022-08-14T00:05:31;4.80;;;4.30;;
51921;SDS011;37948;53.260;6.394;2022-08-14T00:07:56;4.40;;;4.00;;
51921;SDS011;37948;53.260;6.394;2022-08-14T00:10:22;6.75;;;4.13;;
51921;SDS011;37948;53.260;6.394;2022-08-14T00:12:51;5.80;;;4.47;;
51921;SDS011;37948;53.260;6.394;2022-08-14T00:15:23;6.10;;;4.60;;
51921;SDS011;37948;53.260;6.394;2022-08-14T00:17:52;8.93;;;3.70;;
51921;SDS011;37948;53.260;6.394;2022-08-14T00:20:18;9.35;;;4.13;;
51921;SDS011;37948;53.260;6.394;2022-08-14T00:22:52;8.13;;;4.85;;
51921;SDS011;37948;53.260;6.394;2022-08-14T00:25:18;4.47;;;4.18;;
51921;SDS011;37948;53.260;6.394;2022-08-14T00:27:44;5.10;;;4.55;;
51921;SDS011;37948;53.260;6.394;2022-08-14T00:30:10;5.90;;;4.18;;
51921;SDS011;37948;53.260;6.394;2022-08-14T00:32:37;7.63;;;4.45;;
51921;SDS011;37948;53.260;6.394;2022-08-14T00:35:04;8.02;;;4.20;;
51921;SDS011;37948;53.260;6.394;2022-08-14T00:37:31;4.53;;;4.10;;
51921;SDS011;37948;53.260;6.394;2022-08-14T00:39:57;4.95;;;4.22;;
51921;SDS011;37948;53.260;6.394;2022-08-14T00:42:24;6.30;;;4.20;;
51921;SDS011;37948;53.260;6.394;2022-08-14T00:44:50;7.63;;;4.82;;
51921;SDS011;37948;53.260;6.394;2022-08-14T00:47:16;6.78;;;4.93;;
51921;SDS011;37948;53.260;6.394;2022-08-14T00:49:43;5.65;;;4.85;;
51921;SDS011;37948;53.260;6.394;2022-08-14T00:52:12;6.10;;;5.15;;
51921;SDS011;37948;53.260;6.394;2022-08-14T00:54:40;6.30;;;5.03;;
51921;SDS011;37948;53.260;6.394;2022-08-14T00:57:07;5.93;;;4.80;;
51921;SDS011;37948;53.260;6.394;2022-08-14T00:59:33;12.40;;;5.68;;
51921;SDS011;37948;53.260;6.394;2022-08-14T01:01:59;8.13;;;5.75;;
51921;SDS011;37948;53.260;6.394;2022-08-14T01:04:26;10.23;;;5.28;;
51921;SDS011;37948;53.260;6.394;2022-08-14T01:06:53;6.68;;;5.18;;
51921;SDS011;37948;53.260;6.394;2022-08-14T01:09:19;8.02;;;5.70;;
51921;SDS011;37948;53.260;6.394;2022-08-14T01:11:48;7.43;;;5.50;;
51921;SDS011;37948;53.260;6.394;2022-08-14T01:14:15;9.15;;;5.72;;
51921;SDS011;37948;53.260;6.394;2022-08-14T01:16:44;6.28;;;5.68;;
51921;SDS011;37948;53.260;6.394;2022-08-14T01:19:11;15.05;;;5.38;;
51921;SDS011;37948;53.260;6.394;2022-08-14T01:21:56;6.75;;;6.07;;
51921;SDS011;37948;53.260;6.394;2022-08-14T01:24:22;8.60;;;5.63;;
51921;SDS011;37948;53.260;6.394;2022-08-14T01:26:49;6.93;;;6.22;;
51921;SDS011;37948;53.260;6.394;2022-08-14T01:29:15;10.75;;;6.60;;
51921;SDS011;37948;53.260;6.394;2022-08-14T01:31:41;9.40;;;6.32;;
51921;SDS011;37948;53.260;6.394;2022-08-14T01:34:16;7.43;;;6.68;;
51921;SDS011;37948;53.260;6.394;2022-08-14T01:36:44;16.00;;;6.07;;
51921;SDS011;37948;53.260;6.394;2022-08-14T01:39:11;8.02;;;6.18;;
51921;SDS011;37948;53.260;6.394;2022-08-14T01:41:40;8.88;;;6.88;;
51921;SDS011;37948;53.260;6.394;2022-08-14T01:44:09;9.70;;;6.07;;
51921;SDS011;37948;53.260;6.394;2022-08-14T01:46:39;15.23;;;6.75;;
51921;SDS011;37948;53.260;6.394;2022-08-14T01:49:09;7.22;;;5.65;;
51921;SDS011;37948;53.260;6.394;2022-08-14T01:51:39;6.30;;;5.80;;
51921;SDS011;37948;53.260;6.394;2022-08-14T01:54:07;11.52;;;6.43;;
51921;SDS011;37948;53.260;6.394;2022-08-14T01:56:35;6.28;;;5.65;;
51921;SDS011;37948;53.260;6.394;2022-08-14T02:01:32;10.40;;;6.45;;
51921;SDS011;37948;53.260;6.394;2022-08-14T02:03:59;7.60;;;6.18;;
51921;SDS011;37948;53.260;6.394;2022-08-14T02:06:26;7.57;;;6.43;;
51921;SDS011;37948;53.260;6.394;2022-08-14T02:08:55;8.95;;;6.03;;
51921;SDS011;37948;53.260;6.394;2022-08-14T02:11:21;7.38;;;6.22;;
51921;SDS011;37948;53.260;6.394;2022-08-14T02:13:49;6.38;;;5.68;;
51921;SDS011;37948;53.260;6.394;2022-08-14T02:16:21;6.43;;;5.80;;
51921;SDS011;37948;53.260;6.394;2022-08-14T02:18:54;16.33;;;6.38;;
51921;SDS011;37948;53.260;6.394;2022-08-14T02:21:22;13.13;;;6.20;;
51921;SDS011;37948;53.260;6.394;2022-08-14T02:23:49;7.60;;;6.13;;
51921;SDS011;37948;53.260;6.394;2022-08-14T02:26:20;10.10;;;6.20;;
51921;SDS011;37948;53.260;6.394;2022-08-14T02:28:49;7.05;;;6.45;;
51921;SDS011;37948;53.260;6.394;2022-08-14T02:31:17;9.38;;;6.50;;
51921;SDS011;37948;53.260;6.394;2022-08-14T02:33:43;10.38;;;6.25;;
51921;SDS011;37948;53.260;6.394;2022-08-14T02:36:09;11.02;;;7.10;;
51921;SDS011;37948;53.260;6.394;2022-08-14T02:38:36;7.75;;;7.00;;
51921;SDS011;37948;53.260;6.394;2022-08-14T02:41:06;10.98;;;6.50;;
51921;SDS011;37948;53.260;6.394;2022-08-14T02:43:33;9.20;;;6.93;;
51921;SDS011;37948;53.260;6.394;2022-08-14T02:45:58;7.70;;;6.82;;
51921;SDS011;37948;53.260;6.394;2022-08-14T02:48:25;12.70;;;6.57;;
51921;SDS011;37948;53.260;6.394;2022-08-14T02:50:56;8.07;;;6.88;;
51921;SDS011;37948;53.260;6.394;2022-08-14T02:53:22;8.13;;;6.63;;
51921;SDS011;37948;53.260;6.394;2022-08-14T02:55:47;11.55;;;7.63;;
51921;SDS011;37948;53.260;6.394;2022-08-14T02:58:13;8.32;;;7.35;;
51921;SDS011;37948;53.260;6.394;2022-08-14T03:00:39;10.02;;;7.25;;
51921;SDS011;37948;53.260;6.394;2022-08-14T03:03:05;8.82;;;7.53;;
51921;SDS011;37948;53.260;6.394;2022-08-14T03:05:31;7.95;;;7.15;;
51921;SDS011;37948;53.260;6.394;2022-08-14T03:08:03;13.38;;;8.07;;
51921;SDS011;37948;53.260;6.394;2022-08-14T03:10:30;9.30;;;8.32;;
51921;SDS011;37948;53.260;6.394;2022-08-14T03:12:56;9.63;;;8.45;;
51921;SDS011;37948;53.260;6.394;2022-08-14T03:15:21;11.63;;;8.48;;
51921;SDS011;37948;53.260;6.394;2022-08-14T03:17:47;10.25;;;8.95;;
51921;SDS011;37948;53.260;6.394;2022-08-14T03:20:16;9.57;;;8.65;;
51921;SDS011;37948;53.260;6.394;2022-08-14T03:22:42;14.90;;;9.07;;
51921;SDS011;37948;53.260;6.394;2022-08-14T03:25:08;11.27;;;9.30;;
51921;SDS011;37948;53.260;6.394;2022-08-14T03:27:36;12.55;;;9.88;;
51921;SDS011;37948;53.260;6.394;2022-08-14T03:30:02;10.52;;;9.32;;
51921;SDS011;37948;53.260;6.394;2022-08-14T03:32:29;13.65;;;9.13;;
51921;SDS011;37948;53.260;6.394;2022-08-14T03:34:57;15.45;;;9.40;;
51921;SDS011;37948;53.260;6.394;2022-08-14T03:37:23;12.68;;;9.38;;
51921;SDS011;37948;53.260;6.394;2022-08-14T03:39:51;10.00;;;8.90;;
51921;SDS011;37948;53.260;6.394;2022-08-14T03:42:17;9.90;;;8.90;;
51921;SDS011;37948;53.260;6.394;2022-08-14T03:44:43;9.88;;;8.95;;
51921;SDS011;37948;53.260;6.394;2022-08-14T03:47:09;8.80;;;7.88;;
51921;SDS011;37948;53.260;6.394;2022-08-14T03:49:36;13.65;;;8.40;;
51921;SDS011;37948;53.260;6.394;2022-08-14T03:52:02;8.77;;;7.90;;
51921;SDS011;37948;53.260;6.394;2022-08-14T03:54:29;11.23;;;8.23;;
51921;SDS011;37948;53.260;6.394;2022-08-14T03:56:59;9.57;;;8.68;;
51921;SDS011;37948;53.260;6.394;2022-08-14T03:59:25;11.93;;;8.13;;
51921;SDS011;37948;53.260;6.394;2022-08-14T04:01:51;9.82;;;8.23;;
51921;SDS011;37948;53.260;6.394;2022-08-14T04:04:17;11.35;;;8.60;;
51921;SDS011;37948;53.260;6.394;2022-08-14T04:06:42;12.93;;;8.88;;
51921;SDS011;37948;53.260;6.394;2022-08-14T04:09:08;13.35;;;9.55;;
51921;SDS011;37948;53.260;6.394;2022-08-14T04:11:34;10.02;;;9.05;;
51921;SDS011;37948;53.260;6.394;2022-08-14T04:14:01;10.93;;;9.77;;
51921;SDS011;37948;53.260;6.394;2022-08-14T04:16:29;14.55;;;9.55;;
51921;SDS011;37948;53.260;6.394;2022-08-14T04:18:57;12.55;;;8.90;;
51921;SDS011;37948;53.260;6.394;2022-08-14T04:21:24;9.93;;;8.93;;
51921;SDS011;37948;53.260;6.394;2022-08-14T04:23:53;9.07;;;8.18;;
51921;SDS011;37948;53.260;6.394;2022-08-14T04:26:22;11.00;;;9.23;;
51921;SDS011;37948;53.260;6.394;2022-08-14T04:28:49;10.00;;;9.15;;
51921;SDS011;37948;53.260;6.394;2022-08-14T04:31:15;12.35;;;9.30;;
51921;SDS011;37948;53.260;6.394;2022-08-14T04:33:42;13.38;;;9.20;;
51921;SDS011;37948;53.260;6.394;2022-08-14T04:36:08;14.77;;;9.23;;
51921;SDS011;37948;53.260;6.394;2022-08-14T04:38:34;9.55;;;8.65;;
51921;SDS011;37948;53.260;6.394;2022-08-14T04:41:18;9.93;;;8.93;;
51921;SDS011;37948;53.260;6.394;2022-08-14T04:44:03;10.32;;;9.23;;
51921;SDS011;37948;53.260;6.394;2022-08-14T04:46:30;23.90;;;9.80;;
51921;SDS011;37948;53.260;6.394;2022-08-14T04:48:58;10.35;;;9.35;;
51921;SDS011;37948;53.260;6.394;2022-08-14T04:51:24;9.38;;;8.32;;
51921;SDS011;37948;53.260;6.394;2022-08-14T04:53:52;9.13;;;8.20;;
51921;SDS011;37948;53.260;6.394;2022-08-14T04:56:20;9.30;;;8.50;;
51921;SDS011;37948;53.260;6.394;2022-08-14T04:58:48;13.13;;;8.30;;
51921;SDS011;37948;53.260;6.394;2022-08-14T05:01:15;9.15;;;8.15;;
51921;SDS011;37948;53.260;6.394;2022-08-14T05:03:41;8.68;;;7.72;;
51921;SDS011;37948;53.260;6.394;2022-08-14T05:06:08;9.15;;;7.57;;
51921;SDS011;37948;53.260;6.394;2022-08-14T05:08:35;8.88;;;7.65;;
51921;SDS011;37948;53.260;6.394;2022-08-14T05:11:01;9.40;;;7.22;;
51921;SDS011;37948;53.260;6.394;2022-08-14T05:13:31;9.93;;;7.47;;
51921;SDS011;37948;53.260;6.394;2022-08-14T05:15:58;24.83;;;7.88;;
51921;SDS011;37948;53.260;6.394;2022-08-14T05:18:25;10.32;;;8.88;;
51921;SDS011;37948;53.260;6.394;2022-08-14T05:20:53;8.52;;;7.28;;
51921;SDS011;37948;53.260;6.394;2022-08-14T05:23:24;8.23;;;7.32;;
51921;SDS011;37948;53.260;6.394;2022-08-14T05:25:54;11.02;;;8.23;;
51921;SDS011;37948;53.260;6.394;2022-08-14T05:28:25;10.20;;;7.82;;
51921;SDS011;37948;53.260;6.394;2022-08-14T05:30:54;9.07;;;7.38;;
51921;SDS011;37948;53.260;6.394;2022-08-14T05:33:21;8.30;;;7.43;;
51921;SDS011;37948;53.260;6.394;2022-08-14T05:35:49;9.02;;;8.18;;
51921;SDS011;37948;53.260;6.394;2022-08-14T05:38:17;10.02;;;8.45;;
51921;SDS011;37948;53.260;6.394;2022-08-14T05:40:45;7.65;;;6.95;;
51921;SDS011;37948;53.260;6.394;2022-08-14T05:43:12;9.50;;;7.47;;
51921;SDS011;37948;53.260;6.394;2022-08-14T05:45:38;8.32;;;7.22;;
51921;SDS011;37948;53.260;6.394;2022-08-14T05:48:04;8.32;;;6.78;;
51921;SDS011;37948;53.260;6.394;2022-08-14T05:50:31;15.85;;;7.18;;
51921;SDS011;37948;53.260;6.394;2022-08-14T05:52:57;9.38;;;6.55;;
51921;SDS011;37948;53.260;6.394;2022-08-14T05:55:23;12.13;;;7.00;;
51921;SDS011;37948;53.260;6.394;2022-08-14T05:57:54;7.97;;;7.18;;
51921;SDS011;37948;53.260;6.394;2022-08-14T06:00:23;7.72;;;6.63;;
51921;SDS011;37948;53.260;6.394;2022-08-14T06:02:52;7.13;;;6.28;;
51921;SDS011;37948;53.260;6.394;2022-08-14T06:05:20;10.15;;;7.07;;
51921;SDS011;37948;53.260;6.394;2022-08-14T06:07:47;7.35;;;6.57;;
51921;SDS011;37948;53.260;6.394;2022-08-14T06:10:12;14.27;;;6.43;;
51921;SDS011;37948;53.260;6.394;2022-08-14T06:12:38;6.68;;;5.97;;
51921;SDS011;37948;53.260;6.394;2022-08-14T06:15:05;7.80;;;5.78;;
51921;SDS011;37948;53.260;6.394;2022-08-14T06:17:41;6.30;;;5.75;;
51921;SDS011;37948;53.260;6.394;2022-08-14T06:20:08;6.78;;;6.07;;
51921;SDS011;37948;53.260;6.394;2022-08-14T06:22:34;6.32;;;5.10;;
51921;SDS011;37948;53.260;6.394;2022-08-14T06:24:59;7.47;;;6.13;;
51921;SDS011;37948;53.260;6.394;2022-08-14T06:27:25;6.05;;;5.25;;
51921;SDS011;37948;53.260;6.394;2022-08-14T06:29:50;10.68;;;5.50;;
51921;SDS011;37948;53.260;6.394;2022-08-14T06:32:16;7.45;;;4.80;;
51921;SDS011;37948;53.260;6.394;2022-08-14T06:34:41;10.75;;;5.40;;
51921;SDS011;37948;53.260;6.394;2022-08-14T06:37:07;5.32;;;4.93;;
51921;SDS011;37948;53.260;6.394;2022-08-14T06:39:32;6.90;;;5.88;;
51921;SDS011;37948;53.260;6.394;2022-08-14T06:41:58;5.82;;;5.32;;
51921;SDS011;37948;53.260;6.394;2022-08-14T06:44:25;8.32;;;4.90;;
51921;SDS011;37948;53.260;6.394;2022-08-14T06:46:54;5.32;;;4.93;;
51921;SDS011;37948;53.260;6.394;2022-08-14T06:49:19;6.35;;;5.25;;
51921;SDS011;37948;53.260;6.394;2022-08-14T06:51:45;6.95;;;4.93;;
51921;SDS011;37948;53.260;6.394;2022-08-14T06:54:11;7.50;;;4.85;;
51921;SDS011;37948;53.260;6.394;2022-08-14T06:56:37;9.27;;;4.95;;
51921;SDS011;37948;53.260;6.394;2022-08-14T06:59:03;7.18;;;5.40;;
51921;SDS011;37948;53.260;6.394;2022-08-14T07:01:29;5.57;;;5.07;;
51921;SDS011;37948;53.260;6.394;2022-08-14T07:04:13;5.10;;;4.70;;
51921;SDS011;37948;53.260;6.394;2022-08-14T07:06:57;6.10;;;5.50;;
51921;SDS011;37948;53.260;6.394;2022-08-14T07:09:23;8.57;;;5.65;;
51921;SDS011;37948;53.260;6.394;2022-08-14T07:11:49;11.75;;;5.80;;
51921;SDS011;37948;53.260;6.394;2022-08-14T07:14:15;12.40;;;5.85;;
51921;SDS011;37948;53.260;6.394;2022-08-14T07:16:41;6.85;;;5.40;;
51921;SDS011;37948;53.260;6.394;2022-08-14T07:19:07;7.13;;;6.38;;
51921;SDS011;37948;53.260;6.394;2022-08-14T07:21:33;7.35;;;5.40;;
51921;SDS011;37948;53.260;6.394;2022-08-14T07:24:01;5.60;;;4.82;;
51921;SDS011;37948;53.260;6.394;2022-08-14T07:26:27;8.85;;;5.72;;
51921;SDS011;37948;53.260;6.394;2022-08-14T07:28:52;7.47;;;5.45;;
51921;SDS011;37948;53.260;6.394;2022-08-14T07:31:18;6.60;;;5.05;;
51921;SDS011;37948;53.260;6.394;2022-08-14T07:33:45;6.47;;;4.80;;
51921;SDS011;37948;53.260;6.394;2022-08-14T07:36:14;17.15;;;6.03;;
51921;SDS011;37948;53.260;6.394;2022-08-14T07:38:41;5.32;;;4.82;;
51921;SDS011;37948;53.260;6.394;2022-08-14T07:41:08;6.63;;;4.93;;
51921;SDS011;37948;53.260;6.394;2022-08-14T07:43:35;6.57;;;4.70;;
51921;SDS011;37948;53.260;6.394;2022-08-14T07:46:01;6.88;;;4.90;;
51921;SDS011;37948;53.260;6.394;2022-08-14T07:48:27;5.13;;;4.75;;
51921;SDS011;37948;53.260;6.394;2022-08-14T07:50:54;7.38;;;5.00;;
51921;SDS011;37948;53.260;6.394;2022-08-14T07:53:19;11.32;;;4.25;;
51921;SDS011;37948;53.260;6.394;2022-08-14T07:55:46;4.70;;;4.40;;
51921;SDS011;37948;53.260;6.394;2022-08-14T07:58:12;6.55;;;5.30;;
51921;SDS011;37948;53.260;6.394;2022-08-14T08:00:39;4.63;;;4.20;;
51921;SDS011;37948;53.260;6.394;2022-08-14T08:03:06;6.10;;;4.65;;
51921;SDS011;37948;53.260;6.394;2022-08-14T08:05:38;4.75;;;4.28;;
51921;SDS011;37948;53.260;6.394;2022-08-14T08:08:04;5.13;;;4.20;;
51921;SDS011;37948;53.260;6.394;2022-08-14T08:10:31;5.32;;;4.45;;
51921;SDS011;37948;53.260;6.394;2022-08-14T08:13:17;7.07;;;4.63;;
51921;SDS011;37948;53.260;6.394;2022-08-14T08:15:46;4.80;;;4.40;;
51921;SDS011;37948;53.260;6.394;2022-08-14T08:18:14;4.32;;;3.90;;
51921;SDS011;37948;53.260;6.394;2022-08-14T08:20:42;4.25;;;3.95;;
51921;SDS011;37948;53.260;6.394;2022-08-14T08:23:10;9.52;;;4.28;;
51921;SDS011;37948;53.260;6.394;2022-08-14T08:25:38;5.10;;;4.20;;
51921;SDS011;37948;53.260;6.394;2022-08-14T08:30:39;7.32;;;4.80;;
51921;SDS011;37948;53.260;6.394;2022-08-14T08:33:08;4.95;;;4.47;;
51921;SDS011;37948;53.260;6.394;2022-08-14T08:35:35;6.85;;;4.35;;
51921;SDS011;37948;53.260;6.394;2022-08-14T08:38:12;5.40;;;4.00;;
51921;SDS011;37948;53.260;6.394;2022-08-14T08:40:42;4.55;;;4.25;;
51921;SDS011;37948;53.260;6.394;2022-08-14T08:43:23;5.18;;;3.70;;
51921;SDS011;37948;53.260;6.394;2022-08-14T08:45:58;4.45;;;4.05;;
51921;SDS011;37948;53.260;6.394;2022-08-14T08:48:25;5.65;;;3.88;;
51921;SDS011;37948;53.260;6.394;2022-08-14T08:50:56;4.60;;;4.20;;
51921;SDS011;37948;53.260;6.394;2022-08-14T08:53:22;7.32;;;4.05;;
51921;SDS011;37948;53.260;6.394;2022-08-14T08:55:57;8.57;;;3.90;;
51921;SDS011;37948;53.260;6.394;2022-08-14T08:58:24;4.50;;;3.75;;
51921;SDS011;37948;53.260;6.394;2022-08-14T09:00:51;6.13;;;3.80;;
51921;SDS011;37948;53.260;6.394;2022-08-14T09:03:19;3.95;;;3.65;;
51921;SDS011;37948;53.260;6.394;2022-08-14T09:05:52;4.72;;;3.67;;
51921;SDS011;37948;53.260;6.394;2022-08-14T09:08:20;4.13;;;3.70;;
51921;SDS011;37948;53.260;6.394;2022-08-14T09:10:50;8.65;;;3.22;;
51921;SDS011;37948;53.260;6.394;2022-08-14T09:13:17;5.57;;;3.88;;
51921;SDS011;37948;53.260;6.394;2022-08-14T09:15:45;3.90;;;3.60;;
51921;SDS011;37948;53.260;6.394;2022-08-14T09:18:12;5.70;;;3.67;;
51921;SDS011;37948;53.260;6.394;2022-08-14T09:20:40;5.28;;;4.30;;
51921;SDS011;37948;53.260;6.394;2022-08-14T09:23:10;4.47;;;3.45;;
51921;SDS011;37948;53.260;6.394;2022-08-14T09:25:39;5.57;;;3.83;;
51921;SDS011;37948;53.260;6.394;2022-08-14T09:28:06;4.65;;;3.55;;
51921;SDS011;37948;53.260;6.394;2022-08-14T09:30:34;5.22;;;3.70;;
51921;SDS011;37948;53.260;6.394;2022-08-14T09:35:46;7.57;;;3.25;;
51921;SDS011;37948;53.260;6.394;2022-08-14T09:38:18;3.25;;;3.00;;
51921;SDS011;37948;53.260;6.394;2022-08-14T09:46:19;4.30;;;3.40;;
51921;SDS011;37948;53.260;6.394;2022-08-14T09:48:45;6.20;;;3.83;;
51921;SDS011;37948;53.260;6.394;2022-08-14T09:51:21;4.88;;;3.72;;
51921;SDS011;37948;53.260;6.394;2022-08-14T09:53:58;3.13;;;2.80;;
51921;SDS011;37948;53.260;6.394;2022-08-14T09:56:25;6.63;;;3.22;;
51921;SDS011;37948;53.260;6.394;2022-08-14T09:58:51;3.65;;;3.35;;
51921;SDS011;37948;53.260;6.394;2022-08-14T10:01:18;3.97;;;2.97;;
51921;SDS011;37948;53.260;6.394;2022-08-14T10:03:48;4.70;;;3.47;;
51921;SDS011;37948;53.260;6.394;2022-08-14T10:06:21;5.25;;;3.30;;
51921;SDS011;37948;53.260;6.394;2022-08-14T10:08:55;5.50;;;3.38;;
51921;SDS011;37948;53.260;6.394;2022-08-14T10:11:25;10.80;;;3.70;;
51921;SDS011;37948;53.260;6.394;2022-08-14T10:13:56;5.32;;;3.28;;
51921;SDS011;37948;53.260;6.394;2022-08-14T10:16:24;6.63;;;3.25;;
51921;SDS011;37948;53.260;6.394;2022-08-14T10:19:02;5.32;;;3.47;;
51921;SDS011;37948;53.260;6.394;2022-08-14T10:21:40;3.85;;;2.97;;
51921;SDS011;37948;53.260;6.394;2022-08-14T10:24:21;3.50;;;3.20;;
51921;SDS011;37948;53.260;6.394;2022-08-14T10:26:55;2.92;;;2.72;;
51921;SDS011;37948;53.260;6.394;2022-08-14T10:29:32;5.97;;;3.17;;
51921;SDS011;37948;53.260;6.394;2022-08-14T10:32:03;3.85;;;3.47;;
51921;SDS011;37948;53.260;6.394;2022-08-14T10:34:31;3.08;;;2.88;;
51921;SDS011;37948;53.260;6.394;2022-08-14T10:37:01;3.60;;;3.40;;
51921;SDS011;37948;53.260;6.394;2022-08-14T10:39:31;3.25;;;3.00;;
51921;SDS011;37948;53.260;6.394;2022-08-14T10:42:01;3.72;;;3.28;;
51921;SDS011;37948;53.260;6.394;2022-08-14T10:44:38;6.30;;;3.55;;
51921;SDS011;37948;53.260;6.394;2022-08-14T10:47:10;3.95;;;2.83;;
51921;SDS011;37948;53.260;6.394;2022-08-14T10:49:41;5.60;;;3.13;;
51921;SDS011;37948;53.260;6.394;2022-08-14T10:52:21;4.47;;;3.60;;
51921;SDS011;37948;53.260;6.394;2022-08-14T10:54:49;3.58;;;3.22;;
51921;SDS011;37948;53.260;6.394;2022-08-14T10:57:22;3.67;;;3.15;;
51921;SDS011;37948;53.260;6.394;2022-08-14T11:05:06;4.80;;;3.28;;
51921;SDS011;37948;53.260;6.394;2022-08-14T11:07:53;3.45;;;3.15;;
51921;SDS011;37948;53.260;6.394;2022-08-14T11:12:53;5.80;;;2.78;;
51921;SDS011;37948;53.260;6.394;2022-08-14T11:15:24;2.70;;;2.38;;
51921;SDS011;37948;53.260;6.394;2022-08-14T11:17:51;3.33;;;2.57;;
51921;SDS011;37948;53.260;6.394;2022-08-14T11:20:20;5.28;;;2.42;;
51921;SDS011;37948;53.260;6.394;2022-08-14T11:22:50;3.42;;;3.13;;
51921;SDS011;37948;53.260;6.394;2022-08-14T11:25:22;5.25;;;3.17;;
51921;SDS011;37948;53.260;6.394;2022-08-14T11:27:50;5.93;;;3.13;;
51921;SDS011;37948;53.260;6.394;2022-08-14T11:30:19;3.08;;;2.67;;
51921;SDS011;37948;53.260;6.394;2022-08-14T11:32:47;4.00;;;3.15;;
51921;SDS011;37948;53.260;6.394;2022-08-14T11:35:16;4.70;;;2.78;;
51921;SDS011;37948;53.260;6.394;2022-08-14T11:40:15;3.80;;;2.97;;
51921;SDS011;37948;53.260;6.394;2022-08-14T11:42:43;2.80;;;2.60;;
51921;SDS011;37948;53.260;6.394;2022-08-14T11:45:10;4.22;;;3.03;;
51921;SDS011;37948;53.260;6.394;2022-08-14T11:47:36;4.68;;;3.00;;
51921;SDS011;37948;53.260;6.394;2022-08-14T11:50:19;2.80;;;2.60;;
51921;SDS011;37948;53.260;6.394;2022-08-14T11:52:49;6.20;;;3.10;;
51921;SDS011;37948;53.260;6.394;2022-08-14T11:55:18;4.40;;;3.17;;
51921;SDS011;37948;53.260;6.394;2022-08-14T11:57:44;4.28;;;3.38;;
51921;SDS011;37948;53.260;6.394;2022-08-14T12:00:11;3.45;;;3.08;;
51921;SDS011;37948;53.260;6.394;2022-08-14T12:02:51;4.97;;;2.65;;
51921;SDS011;37948;53.260;6.394;2022-08-14T12:05:28;2.67;;;2.45;;
51921;SDS011;37948;53.260;6.394;2022-08-14T12:07:58;3.65;;;3.35;;
51921;SDS011;37948;53.260;6.394;2022-08-14T12:10:25;6.80;;;3.05;;
51921;SDS011;37948;53.260;6.394;2022-08-14T12:12:53;4.97;;;3.30;;
51921;SDS011;37948;53.260;6.394;2022-08-14T12:15:30;3.58;;;3.20;;
51921;SDS011;37948;53.260;6.394;2022-08-14T12:17:58;3.60;;;3.03;;
51921;SDS011;37948;53.260;6.394;2022-08-14T12:20:35;3.20;;;2.90;;
51921;SDS011;37948;53.260;6.394;2022-08-14T12:23:05;3.15;;;2.83;;
51921;SDS011;37948;53.260;6.394;2022-08-14T12:25:33;3.60;;;3.13;;
51921;SDS011;37948;53.260;6.394;2022-08-14T12:28:03;3.25;;;2.95;;
51921;SDS011;37948;53.260;6.394;2022-08-14T12:30:37;5.55;;;3.05;;
51921;SDS011;37948;53.260;6.394;2022-08-14T12:33:06;3.15;;;2.95;;
51921;SDS011;37948;53.260;6.394;2022-08-14T12:35:54;4.63;;;3.15;;
51921;SDS011;37948;53.260;6.394;2022-08-14T12:41:01;3.70;;;3.30;;
51921;SDS011;37948;53.260;6.394;2022-08-14T12:43:30;3.60;;;3.33;;
51921;SDS011;37948;53.260;6.394;2022-08-14T12:45:57;4.00;;;3.70;;
51921;SDS011;37948;53.260;6.394;2022-08-14T12:48:24;5.05;;;3.38;;
51921;SDS011;37948;53.260;6.394;2022-08-14T12:50:53;6.22;;;3.38;;
51921;SDS011;37948;53.260;6.394;2022-08-14T12:53:19;4.15;;;3.15;;
51921;SDS011;37948;53.260;6.394;2022-08-14T12:55:45;3.42;;;3.10;;
51921;SDS011;37948;53.260;6.394;2022-08-14T12:58:25;3.78;;;3.47;;
51921;SDS011;37948;53.260;6.394;2022-08-14T13:00:52;5.60;;;3.20;;
51921;SDS011;37948;53.260;6.394;2022-08-14T13:03:23;5.30;;;3.42;;
51921;SDS011;37948;53.260;6.394;2022-08-14T13:05:50;3.85;;;3.15;;
51921;SDS011;37948;53.260;6.394;2022-08-14T13:08:17;7.70;;;3.03;;
51921;SDS011;37948;53.260;6.394;2022-08-14T13:10:47;3.83;;;3.40;;
51921;SDS011;37948;53.260;6.394;2022-08-14T13:13:17;3.65;;;3.33;;
51921;SDS011;37948;53.260;6.394;2022-08-14T13:15:45;4.25;;;3.35;;
51921;SDS011;37948;53.260;6.394;2022-08-14T13:18:16;5.63;;;3.80;;
51921;SDS011;37948;53.260;6.394;2022-08-14T13:20:42;4.53;;;3.45;;
51921;SDS011;37948;53.260;6.394;2022-08-14T13:23:11;4.93;;;3.20;;
51921;SDS011;37948;53.260;6.394;2022-08-14T13:25:38;4.53;;;3.58;;
51921;SDS011;37948;53.260;6.394;2022-08-14T13:28:07;4.18;;;2.95;;
51921;SDS011;37948;53.260;6.394;2022-08-14T13:30:35;3.42;;;2.95;;
51921;SDS011;37948;53.260;6.394;2022-08-14T13:33:02;2.88;;;2.67;;
51921;SDS011;37948;53.260;6.394;2022-08-14T13:35:29;3.15;;;2.83;;
51921;SDS011;37948;53.260;6.394;2022-08-14T13:37:55;3.78;;;3.42;;
51921;SDS011;37948;53.260;6.394;2022-08-14T13:40:21;4.15;;;3.78;;
51921;SDS011;37948;53.260;6.394;2022-08-14T13:42:49;9.98;;;3.40;;
51921;SDS011;37948;53.260;6.394;2022-08-14T13:45:17;5.97;;;3.50;;
51921;SDS011;37948;53.260;6.394;2022-08-14T13:47:46;5.03;;;3.13;;
51921;SDS011;37948;53.260;6.394;2022-08-14T13:50:13;4.68;;;3.05;;
51921;SDS011;37948;53.260;6.394;2022-08-14T13:52:48;3.42;;;3.13;;
51921;SDS011;37948;53.260;6.394;2022-08-14T13:55:18;4.85;;;3.17;;
51921;SDS011;37948;53.260;6.394;2022-08-14T13:57:49;3.97;;;3.60;;
51921;SDS011;37948;53.260;6.394;2022-08-14T14:00:15;5.05;;;3.15;;
51921;SDS011;37948;53.260;6.394;2022-08-14T14:02:43;5.78;;;3.60;;
51921;SDS011;37948;53.260;6.394;2022-08-14T14:05:14;3.30;;;3.00;;
51921;SDS011;37948;53.260;6.394;2022-08-14T14:07:46;9.15;;;3.25;;
51921;SDS011;37948;53.260;6.394;2022-08-14T14:10:14;4.25;;;3.30;;
51921;SDS011;37948;53.260;6.394;2022-08-14T14:12:41;9.55;;;3.70;;
51921;SDS011;37948;53.260;6.394;2022-08-14T14:15:11;5.05;;;3.40;;
51921;SDS011;37948;53.260;6.394;2022-08-14T14:17:39;3.65;;;3.20;;
51921;SDS011;37948;53.260;6.394;2022-08-14T14:20:07;6.60;;;3.25;;
51921;SDS011;37948;53.260;6.394;2022-08-14T14:22:40;7.30;;;3.40;;
51921;SDS011;37948;53.260;6.394;2022-08-14T14:25:11;7.35;;;3.22;;
51921;SDS011;37948;53.260;6.394;2022-08-14T14:27:45;3.85;;;3.47;;
51921;SDS011;37948;53.260;6.394;2022-08-14T14:30:13;3.63;;;3.30;;
51921;SDS011;37948;53.260;6.394;2022-08-14T14:32:41;6.47;;;3.50;;
51921;SDS011;37948;53.260;6.394;2022-08-14T14:35:10;7.35;;;3.92;;
51921;SDS011;37948;53.260;6.394;2022-08-14T14:37:39;5.72;;;3.88;;
51921;SDS011;37948;53.260;6.394;2022-08-14T14:40:06;5.00;;;3.60;;
51921;SDS011;37948;53.260;6.394;2022-08-14T14:42:32;4.13;;;3.70;;
51921;SDS011;37948;53.260;6.394;2022-08-14T14:45:32;7.05;;;4.03;;
51921;SDS011;37948;53.260;6.394;2022-08-14T14:47:52;3.92;;;3.33;;
51921;SDS011;37948;53.260;6.394;2022-08-14T14:50:19;4.22;;;3.30;;
51921;SDS011;37948;53.260;6.394;2022-08-14T14:52:46;3.58;;;3.28;;
51921;SDS011;37948;53.260;6.394;2022-08-14T14:55:13;5.30;;;3.92;;
51921;SDS011;37948;53.260;6.394;2022-08-14T14:57:40;3.90;;;3.55;;
51921;SDS011;37948;53.260;6.394;2022-08-14T15:00:07;5.82;;;3.65;;
51921;SDS011;37948;53.260;6.394;2022-08-14T15:02:36;4.00;;;3.15;;
51921;SDS011;37948;53.260;6.394;2022-08-14T15:05:05;3.80;;;3.40;;
51921;SDS011;37948;53.260;6.394;2022-08-14T15:07:32;3.97;;;3.58;;
51921;SDS011;37948;53.260;6.394;2022-08-14T15:09:58;4.63;;;3.17;;
51921;SDS011;37948;53.260;6.394;2022-08-14T15:12:23;3.72;;;3.30;;
51921;SDS011;37948;53.260;6.394;2022-08-14T15:14:49;3.50;;;3.20;;
51921;SDS011;37948;53.260;6.394;2022-08-14T15:17:15;7.35;;;3.60;;
51921;SDS011;37948;53.260;6.394;2022-08-14T15:19:41;4.35;;;3.45;;